createdAt,value
2019-01-04T00:02:00.015Z,102896.58
2019-01-04T00:04:31.681Z,102897.63
2019-01-04T00:07:03.485Z,102904.02
2019-01-04T00:09:32.057Z,102903.72
2019-01-04T00:12:03.680Z,102908.28
2019-01-04T00:14:32.922Z,102908.02
2019-01-04T00:17:04.200Z,102916.56
2019-01-04T00:19:32.737Z,102910.44
2019-01-04T00:22:01.343Z,102912.08
2019-01-04T00:24:30.025Z,102903.30
2019-01-04T00:26:58.620Z,102898.00
2019-01-04T00:29:30.582Z,102897.67
2019-01-04T00:32:01.977Z,102895.34
2019-01-04T00:34:30.640Z,102904.17
2019-01-04T00:36:59.274Z,102907.05
2019-01-04T00:39:27.845Z,102903.35
2019-01-04T00:41:59.463Z,102903.63
2019-01-04T00:44:31.046Z,102909.34
2019-01-04T00:46:59.595Z,102913.58
2019-01-04T00:49:31.041Z,102904.30
2019-01-04T00:51:59.671Z,102907.55
2019-01-04T00:54:31.044Z,102906.62
2019-01-04T00:57:13.778Z,102904.42
2019-01-04T01:00:30.212Z,102897.84
2019-01-04T01:03:19.314Z,102894.23
2019-01-04T01:06:16.464Z,102900.73
2019-01-04T01:09:23.589Z,102892.49
2019-01-04T01:12:05.051Z,102889.11
2019-01-04T01:15:00.858Z,102889.06
2019-01-04T01:17:35.681Z,102881.41
2019-01-04T01:20:21.825Z,102881.66
2019-01-04T01:23:02.341Z,102881.95
2019-01-04T01:25:56.114Z,102885.05
2019-01-04T01:28:51.525Z,102883.59
2019-01-04T01:31:56.411Z,102888.83
2019-01-04T01:34:40.238Z,102896.77
2019-01-04T01:37:33.238Z,102896.57
2019-01-04T01:40:57.084Z,102891.08
2019-01-04T01:43:34.256Z,102893.59
2019-01-04T01:46:42.899Z,102890.73
2019-01-04T01:49:33.828Z,102888.69
2019-01-04T01:52:05.429Z,102879.91
2019-01-04T01:54:33.998Z,102871.42
2019-01-04T01:57:05.308Z,102861.88
2019-01-04T01:59:33.865Z,102861.69
2019-01-04T02:02:02.667Z,102862.80
2019-01-04T02:04:31.225Z,102854.42
2019-01-04T02:06:59.795Z,102860.28
2019-01-04T02:09:28.407Z,102857.47
2019-01-04T02:11:56.962Z,102852.28
2019-01-04T02:14:25.523Z,102851.57
2019-01-04T02:16:54.367Z,102847.56
2019-01-04T02:19:22.949Z,102838.93
2019-01-04T02:21:51.512Z,102836.86
2019-01-04T02:24:22.818Z,102840.37
2019-01-04T02:26:51.375Z,102845.21
2019-01-04T02:29:22.985Z,102846.20
2019-01-04T02:31:51.557Z,102846.52
2019-01-04T02:34:23.154Z,102841.45
2019-01-04T02:36:51.704Z,102840.37
2019-01-04T02:39:20.269Z,102840.88
2019-01-04T02:41:50.392Z,102836.98
2019-01-04T02:44:20.475Z,102834.06
2019-01-04T02:46:50.545Z,102822.91
2019-01-04T02:49:22.098Z,102825.59
2019-01-04T02:51:50.639Z,102822.91
2019-01-04T02:54:22.158Z,102823.41
2019-01-04T02:56:53.865Z,102820.19
2019-01-04T02:59:22.851Z,102812.67
2019-01-04T03:01:51.423Z,102815.77
2019-01-04T03:04:23.198Z,102816.77
2019-01-04T03:06:51.837Z,102813.66
2019-01-04T03:09:20.402Z,102810.69
2019-01-04T03:11:50.479Z,102806.09
2019-01-04T03:14:20.543Z,102795.69
2019-01-04T03:16:49.632Z,102796.60
2019-01-04T03:19:18.196Z,102790.47
2019-01-04T03:21:46.917Z,102785.23
2019-01-04T03:24:15.475Z,102783.09
2019-01-04T03:26:44.038Z,102776.11
2019-01-04T03:29:15.524Z,102777.22
2019-01-04T03:31:44.095Z,102768.91
2019-01-04T03:34:13.001Z,102771.05
2019-01-04T03:36:41.557Z,102764.84
2019-01-04T03:39:10.109Z,102764.70
2019-01-04T03:41:38.657Z,102759.84
2019-01-04T03:44:07.218Z,102758.09
2019-01-04T03:46:35.764Z,102753.23
2019-01-04T03:49:07.575Z,102746.16
2019-01-04T03:51:39.450Z,102741.30
2019-01-04T03:54:08.073Z,102740.98
2019-01-04T03:56:36.636Z,102745.25
2019-01-04T03:59:05.180Z,102747.81
2019-01-04T04:01:33.752Z,102740.47
2019-01-04T04:04:05.237Z,102738.70
2019-01-04T04:06:36.971Z,102728.33
2019-01-04T04:09:06.805Z,102724.45
2019-01-04T04:11:38.347Z,102724.64
2019-01-04T04:14:06.895Z,102715.07
2019-01-04T04:16:35.451Z,102710.18
2019-01-04T04:19:07.160Z,102707.27
2019-01-04T04:21:38.455Z,102696.80
2019-01-04T04:24:07.023Z,102691.52
2019-01-04T04:26:38.607Z,102689.75
2019-01-04T04:29:09.930Z,102689.45
2019-01-04T04:31:41.457Z,102682.95
2019-01-04T04:34:12.932Z,102679.56
2019-01-04T04:36:44.230Z,102679.37
2019-01-04T04:39:13.133Z,102679.50
2019-01-04T04:41:44.344Z,102676.80
2019-01-04T04:44:12.917Z,102679.44
2019-01-04T04:46:41.473Z,102679.81
2019-01-04T04:49:12.724Z,102667.37
2019-01-04T04:51:44.012Z,102665.90
2019-01-04T04:54:12.569Z,102661.61
2019-01-04T04:56:41.110Z,102662.76
2019-01-04T04:59:09.700Z,102656.45
2019-01-04T05:01:41.323Z,102660.20
2019-01-04T05:04:12.733Z,102657.80
2019-01-04T05:06:44.044Z,102657.19
2019-01-04T05:09:15.633Z,102654.10
2019-01-04T05:11:48.271Z,102654.17
2019-01-04T05:14:18.015Z,102654.17
2019-01-04T05:16:49.248Z,102643.37
2019-01-04T05:19:20.605Z,102647.39
2019-01-04T05:21:52.016Z,102641.98
2019-01-04T05:24:20.616Z,102649.60
2019-01-04T05:26:51.983Z,102645.17
2019-01-04T05:29:23.623Z,102647.73
2019-01-04T05:31:55.162Z,102648.11
2019-01-04T05:34:26.658Z,102655.08
2019-01-04T05:36:55.613Z,102643.55
2019-01-04T05:39:24.332Z,102635.72
2019-01-04T05:41:52.922Z,102648.17
2019-01-04T05:44:24.520Z,102642.26
2019-01-04T05:46:53.079Z,102636.44
2019-01-04T05:49:21.637Z,102632.17
2019-01-04T05:51:50.201Z,102620.58
2019-01-04T05:54:21.798Z,102622.20
2019-01-04T05:56:50.805Z,102609.22
2019-01-04T05:59:22.522Z,102604.23
2019-01-04T06:01:51.075Z,102601.53
2019-01-04T06:04:20.053Z,102599.91
2019-01-04T06:06:55.311Z,102599.38
2019-01-04T06:09:26.542Z,102607.77
2019-01-04T06:11:58.127Z,102605.55
2019-01-04T06:14:29.944Z,102595.30
2019-01-04T06:16:58.502Z,102598.00
2019-01-04T06:19:29.847Z,102601.53
2019-01-04T06:21:58.415Z,102597.38
2019-01-04T06:24:27.015Z,102589.86
2019-01-04T06:26:58.635Z,102582.44
2019-01-04T06:29:30.150Z,102581.00
2019-01-04T06:32:01.919Z,102576.23
2019-01-04T06:34:33.363Z,102569.67
2019-01-04T06:37:05.051Z,102574.94
2019-01-04T06:39:33.606Z,102578.98
2019-01-04T06:42:02.747Z,102585.97
2019-01-04T06:44:34.326Z,102588.02
2019-01-04T06:47:11.408Z,102587.55
2019-01-04T06:49:39.969Z,102585.69
2019-01-04T06:52:08.536Z,102585.47
2019-01-04T06:55:13.238Z,102576.95
2019-01-04T06:57:42.010Z,102579.41
2019-01-04T07:00:11.851Z,102577.17
2019-01-04T07:02:40.595Z,102570.41
2019-01-04T07:05:09.430Z,102571.50
2019-01-04T07:07:38.057Z,102564.86
2019-01-04T07:10:08.302Z,102572.42
2019-01-04T07:12:36.854Z,102567.48
2019-01-04T07:15:06.781Z,102562.55
2019-01-04T07:17:35.512Z,102561.87
2019-01-04T07:20:05.046Z,102561.45
2019-01-04T07:22:33.606Z,102563.52
2019-01-04T07:25:02.568Z,102552.30
2019-01-04T07:27:31.119Z,102549.22
2019-01-04T07:29:59.677Z,102541.02
2019-01-04T07:32:30.940Z,102533.24
2019-01-04T07:34:59.524Z,102533.97
2019-01-04T07:37:30.762Z,102526.78
2019-01-04T07:40:02.267Z,102531.30
2019-01-04T07:42:33.502Z,102527.58
2019-01-04T07:45:02.076Z,102521.13
2019-01-04T07:47:33.617Z,102526.14
2019-01-04T07:50:02.183Z,102529.16
2019-01-04T07:52:30.758Z,102521.52
2019-01-04T07:54:59.370Z,102525.60
2019-01-04T07:57:27.920Z,102530.25
2019-01-04T07:59:56.582Z,102527.81
2019-01-04T08:02:48.953Z,102518.93
2019-01-04T08:05:19.049Z,102518.33
2019-01-04T08:07:48.558Z,102515.70
2019-01-04T08:10:17.113Z,102517.64
2019-01-04T08:12:48.435Z,102517.80
2019-01-04T08:15:16.998Z,102514.03
2019-01-04T08:17:45.562Z,102505.30
2019-01-04T08:20:14.494Z,102512.02
2019-01-04T08:22:43.087Z,102501.20
2019-01-04T08:25:14.799Z,102482.44
2019-01-04T08:27:44.047Z,102475.47
2019-01-04T08:30:16.124Z,102482.44
2019-01-04T08:32:45.034Z,102480.94
2019-01-04T08:35:16.338Z,102475.61
2019-01-04T08:37:44.892Z,102472.35
2019-01-04T08:40:16.388Z,102474.33
2019-01-04T08:42:44.942Z,102478.38
2019-01-04T08:45:13.576Z,102472.27
2019-01-04T08:47:42.140Z,102467.91
2019-01-04T08:50:10.798Z,102465.02
2019-01-04T08:52:39.356Z,102458.80
2019-01-04T08:55:11.051Z,102459.45
2019-01-04T08:57:42.575Z,102449.44
2019-01-04T09:00:15.450Z,102459.09
2019-01-04T09:02:44.001Z,102447.38
2019-01-04T09:05:12.554Z,102453.22
2019-01-04T09:07:43.895Z,102453.16
2019-01-04T09:10:15.403Z,102454.94
2019-01-04T09:12:43.956Z,102450.17
2019-01-04T09:15:12.513Z,102442.56
2019-01-04T09:17:41.229Z,102429.51
2019-01-04T09:20:10.527Z,102427.47
2019-01-04T09:22:39.157Z,102424.16
2019-01-04T09:25:08.742Z,102412.83
2019-01-04T09:27:37.308Z,102410.71
2019-01-04T09:30:08.604Z,102398.72
2019-01-04T09:32:37.231Z,102394.98
2019-01-04T09:35:06.714Z,102394.84
2019-01-04T09:37:35.293Z,102389.98
2019-01-04T09:40:05.328Z,102387.94
2019-01-04T09:42:36.651Z,102382.25
2019-01-04T09:45:07.245Z,102377.45
2019-01-04T09:47:38.516Z,102374.02
2019-01-04T09:50:10.356Z,102368.20
2019-01-04T09:52:41.948Z,102354.93
2019-01-04T09:55:10.572Z,102356.59
2019-01-04T09:57:42.109Z,102359.64
2019-01-04T10:00:11.617Z,102355.64
2019-01-04T10:02:40.177Z,102343.11
2019-01-04T10:05:08.999Z,102326.54
2019-01-04T10:07:37.631Z,102318.92
2019-01-04T10:10:10.623Z,102327.75
2019-01-04T10:12:42.112Z,102326.88
2019-01-04T10:15:13.320Z,102316.03
2019-01-04T10:17:44.566Z,102311.57
2019-01-04T10:20:13.495Z,102303.21
2019-01-04T10:22:45.319Z,102300.90
2019-01-04T10:25:16.657Z,102300.06
2019-01-04T10:27:45.740Z,102295.44
2019-01-04T10:30:26.658Z,102286.96
2019-01-04T10:32:55.420Z,102275.05
2019-01-04T10:35:24.314Z,102267.89
2019-01-04T10:37:52.871Z,102257.50
2019-01-04T10:40:21.432Z,102256.58
2019-01-04T10:42:52.950Z,102251.36
2019-01-04T10:45:21.522Z,102246.28
2019-01-04T10:47:53.097Z,102230.91
2019-01-04T10:50:21.761Z,102219.86
2019-01-04T10:52:53.140Z,102202.91
2019-01-04T10:55:24.638Z,102195.62
2019-01-04T10:57:53.203Z,102194.64
2019-01-04T11:00:21.830Z,102184.02
2019-01-04T11:02:50.379Z,102181.16
2019-01-04T11:05:20.617Z,102164.72
2019-01-04T11:07:51.941Z,102168.00
2019-01-04T11:10:20.501Z,102160.67
2019-01-04T11:12:50.572Z,102154.17
2019-01-04T11:15:22.057Z,102141.02
2019-01-04T11:17:50.623Z,102141.44
2019-01-04T11:20:37.411Z,102131.48
2019-01-04T11:23:09.031Z,102137.97
2019-01-04T11:25:59.681Z,102123.39
2019-01-04T11:28:40.853Z,102122.13
2019-01-04T11:31:45.840Z,102115.63
2019-01-04T11:34:40.602Z,102105.78
2019-01-04T11:37:14.791Z,102103.27
2019-01-04T11:40:05.404Z,102094.28
2019-01-04T11:42:55.178Z,102094.33
2019-01-04T11:45:32.479Z,102083.74
2019-01-04T11:48:09.831Z,102073.05
2019-01-04T11:50:49.295Z,102071.02
2019-01-04T11:53:19.673Z,102055.17
2019-01-04T11:55:48.305Z,102053.41
2019-01-04T11:58:17.027Z,102047.95
2019-01-04T12:00:45.642Z,102043.23
2019-01-04T12:03:14.239Z,102032.16
2019-01-04T12:05:45.848Z,102026.08
2019-01-04T12:08:14.397Z,102020.63
2019-01-04T12:10:46.240Z,102018.88
2019-01-04T12:13:14.859Z,102012.59
2019-01-04T12:15:46.129Z,102009.69
2019-01-04T12:18:14.684Z,101989.77
2019-01-04T12:20:45.527Z,101988.20
2019-01-04T12:23:13.568Z,101988.53
2019-01-04T12:25:42.130Z,102000.53
2019-01-04T12:28:10.733Z,102007.45
2019-01-04T12:30:42.219Z,102023.67
2019-01-04T12:33:13.785Z,102021.58
2019-01-04T12:35:42.348Z,102016.39
2019-01-04T12:38:10.970Z,102025.77
2019-01-04T12:40:39.585Z,102027.06
2019-01-04T12:43:08.155Z,102025.78
2019-01-04T12:45:36.703Z,102031.83
2019-01-04T12:48:05.330Z,102036.05
2019-01-04T12:50:36.884Z,102033.92
2019-01-04T12:53:05.471Z,102045.59
2019-01-04T12:55:34.110Z,102035.26
2019-01-04T12:58:02.726Z,102033.91
2019-01-04T13:00:31.290Z,102033.11
2019-01-04T13:02:59.850Z,102027.17
2019-01-04T13:05:28.406Z,102028.97
2019-01-04T13:07:57.319Z,102024.97
2019-01-04T13:10:29.713Z,102016.06
2019-01-04T13:12:58.651Z,102009.27
2019-01-04T13:15:30.237Z,102016.12
2019-01-04T13:17:59.197Z,102023.93
2019-01-04T13:20:30.429Z,102014.40
2019-01-04T13:23:02.097Z,102003.69
2019-01-04T13:25:30.651Z,102007.20
2019-01-04T13:28:02.228Z,102012.78
2019-01-04T13:30:33.760Z,102005.11
2019-01-04T13:33:02.317Z,102005.06
2019-01-04T13:35:33.553Z,101993.92
2019-01-04T13:38:04.873Z,101991.77
2019-01-04T13:40:38.031Z,101990.45
2019-01-04T13:43:09.791Z,101988.38
2019-01-04T13:45:38.397Z,101990.02
2019-01-04T13:48:10.571Z,101991.73
2019-01-04T13:50:39.133Z,101982.72
2019-01-04T13:53:08.104Z,101970.34
2019-01-04T13:55:36.688Z,101964.30
2019-01-04T13:58:05.257Z,101959.10
2019-01-04T14:00:36.758Z,101962.20
2019-01-04T14:03:05.318Z,101954.00
2019-01-04T14:05:33.942Z,101958.77
2019-01-04T14:08:02.499Z,101946.33
2019-01-04T14:10:34.256Z,101936.04
2019-01-04T14:13:09.113Z,101934.72
2019-01-04T14:15:35.802Z,101941.10
2019-01-04T14:18:04.763Z,101944.23
2019-01-04T14:20:33.354Z,101938.62
2019-01-04T14:23:04.684Z,101939.55
2019-01-04T14:25:36.424Z,101935.19
2019-01-04T14:28:07.744Z,101936.05
2019-01-04T14:30:36.356Z,101942.94
2019-01-04T14:33:04.987Z,101927.08
2019-01-04T14:35:33.951Z,101936.62
2019-01-04T14:38:02.505Z,101936.16
2019-01-04T14:40:31.063Z,101925.40
2019-01-04T14:42:59.627Z,101922.83
2019-01-04T14:45:28.208Z,101906.50
2019-01-04T14:47:56.763Z,101900.92
2019-01-04T14:50:28.729Z,101908.29
2019-01-04T14:52:57.292Z,101909.49
2019-01-04T14:55:25.838Z,101915.11
2019-01-04T14:57:57.264Z,101916.44
2019-01-04T15:00:25.820Z,101909.11
2019-01-04T15:02:54.368Z,101908.28
2019-01-04T15:05:22.929Z,101902.78
2019-01-04T15:07:51.490Z,101901.42
2019-01-04T15:10:21.027Z,101894.56
2019-01-04T15:12:51.114Z,101889.38
2019-01-04T15:15:21.222Z,101885.09
2019-01-04T15:17:51.717Z,101889.84
2019-01-04T15:20:20.272Z,101889.34
2019-01-04T15:22:48.857Z,101895.34
2019-01-04T15:25:17.875Z,101905.72
2019-01-04T15:27:49.356Z,101905.25
2019-01-04T15:30:19.940Z,101916.78
2019-01-04T15:32:51.489Z,101911.69
2019-01-04T15:35:20.038Z,101894.13
2019-01-04T15:37:48.632Z,101891.56
2019-01-04T15:40:19.712Z,101880.95
2019-01-04T15:42:48.351Z,101883.88
2019-01-04T15:45:17.042Z,101885.62
2019-01-04T15:47:45.563Z,101889.95
2019-01-04T15:50:14.144Z,101878.34
2019-01-04T15:52:42.689Z,101879.69
2019-01-04T15:55:11.244Z,101880.52
2019-01-04T15:57:42.510Z,101880.95
2019-01-04T16:00:15.266Z,101874.91
2019-01-04T16:02:43.808Z,101874.51
2019-01-04T16:05:12.368Z,101869.42
2019-01-04T16:07:41.340Z,101873.74
2019-01-04T16:10:10.426Z,101866.39
2019-01-04T16:12:38.986Z,101866.85
2019-01-04T16:15:09.823Z,101872.40
2019-01-04T16:17:38.379Z,101881.84
2019-01-04T16:20:09.659Z,101886.12
2019-01-04T16:22:38.220Z,101888.23
2019-01-04T16:25:07.812Z,101882.69
2019-01-04T16:27:36.363Z,101875.06
2019-01-04T16:30:07.432Z,101871.20
2019-01-04T16:32:35.986Z,101860.90
2019-01-04T16:35:05.197Z,101860.90
2019-01-04T16:37:33.769Z,101866.08
2019-01-04T16:40:02.369Z,101868.67
2019-01-04T16:42:30.970Z,101880.66
2019-01-04T16:45:02.528Z,101870.39
2019-01-04T16:47:31.098Z,101870.87
2019-01-04T16:49:59.803Z,101859.67
2019-01-04T16:52:28.421Z,101851.06
2019-01-04T16:54:57.787Z,101853.26
2019-01-04T16:57:26.341Z,101851.94
2019-01-04T16:59:54.903Z,101844.27
2019-01-04T17:02:23.499Z,101845.50
2019-01-04T17:04:55.038Z,101847.67
2019-01-04T17:07:23.590Z,101846.02
2019-01-04T17:09:52.465Z,101856.77
2019-01-04T17:12:21.035Z,101856.29
2019-01-04T17:14:49.582Z,101861.44
2019-01-04T17:17:19.773Z,101860.15
2019-01-04T17:19:48.411Z,101859.72
2019-01-04T17:22:17.066Z,101865.77
2019-01-04T17:24:45.593Z,101867.06
2019-01-04T17:27:14.147Z,101859.77
2019-01-04T17:29:42.712Z,101852.89
2019-01-04T17:32:11.299Z,101853.76
2019-01-04T17:34:40.265Z,101860.59
2019-01-04T17:37:08.817Z,101866.61
2019-01-04T17:39:37.405Z,101868.75
2019-01-04T17:42:06.423Z,101867.95
2019-01-04T17:44:35.033Z,101868.78
2019-01-04T17:47:03.664Z,101865.37
2019-01-04T17:49:32.209Z,101864.52
2019-01-04T17:52:00.975Z,101869.23
2019-01-04T17:54:29.549Z,101861.08
2019-01-04T17:56:58.128Z,101871.41
2019-01-04T17:59:26.680Z,101870.52
2019-01-04T18:01:58.186Z,101867.10
2019-01-04T18:04:26.728Z,101859.83
2019-01-04T18:06:57.412Z,101860.28
2019-01-04T18:09:25.565Z,101872.28
2019-01-04T18:11:54.520Z,101870.09
2019-01-04T18:14:23.083Z,101867.95
2019-01-04T18:16:51.636Z,101866.25
2019-01-04T18:19:20.187Z,101866.74
2019-01-04T18:21:48.769Z,101865.00
2019-01-04T18:24:19.404Z,101866.73
2019-01-04T18:26:49.601Z,101866.69
2019-01-04T18:29:18.232Z,101867.13
2019-01-04T18:31:48.084Z,101868.04
2019-01-04T18:34:16.619Z,101853.45
2019-01-04T18:36:45.505Z,101856.87
2019-01-04T18:39:14.090Z,101861.98
2019-01-04T18:41:42.636Z,101859.01
2019-01-04T18:44:14.365Z,101860.74
2019-01-04T18:46:42.931Z,101868.00
2019-01-04T18:49:11.481Z,101864.57
2019-01-04T18:51:40.075Z,101865.00
2019-01-04T18:54:08.622Z,101859.91
2019-01-04T18:56:37.175Z,101854.77
2019-01-04T18:59:05.791Z,101863.33
2019-01-04T19:01:34.342Z,101857.34
2019-01-04T19:04:02.895Z,101854.73
2019-01-04T19:06:31.790Z,101858.63
2019-01-04T19:09:00.336Z,101866.80
2019-01-04T19:11:28.936Z,101859.91
2019-01-04T19:13:57.494Z,101849.16
2019-01-04T19:16:26.379Z,101857.75
2019-01-04T19:18:54.942Z,101863.79
2019-01-04T19:21:23.881Z,101863.79
2019-01-04T19:23:52.438Z,101860.30
2019-01-04T19:26:20.991Z,101862.89
2019-01-04T19:28:49.573Z,101854.73
2019-01-04T19:31:18.246Z,101846.14
2019-01-04T19:33:48.795Z,101853.89
2019-01-04T19:36:17.167Z,101848.70
2019-01-04T19:38:50.867Z,101848.69
2019-01-04T19:41:19.465Z,101846.55
2019-01-04T19:43:51.147Z,101842.28
2019-01-04T19:46:21.245Z,101837.97
2019-01-04T19:48:51.655Z,101823.80
2019-01-04T19:51:20.204Z,101823.80
2019-01-04T19:53:48.765Z,101824.70
2019-01-04T19:56:19.550Z,101823.80
2019-01-04T19:58:48.111Z,101822.10
2019-01-04T20:01:18.059Z,101808.38
2019-01-04T20:03:46.605Z,101813.46
2019-01-04T20:06:41.186Z,101803.63
2019-01-04T20:09:46.480Z,101799.37
2019-01-04T20:12:53.074Z,101790.33
2019-01-04T20:15:58.534Z,101782.59
2019-01-04T20:18:41.548Z,101770.59
2019-01-04T20:21:19.361Z,101768.86
2019-01-04T20:24:01.249Z,101768.03
2019-01-04T20:26:48.090Z,101771.86
2019-01-04T20:29:21.263Z,101766.28
2019-01-04T20:31:52.366Z,101766.70
2019-01-04T20:34:31.792Z,101761.56
2019-01-04T20:37:10.667Z,101766.27
2019-01-04T20:39:40.865Z,101764.99
2019-01-04T20:42:27.566Z,101758.55
2019-01-04T20:45:07.005Z,101756.86
2019-01-04T20:47:57.437Z,101753.41
2019-01-04T20:53:28.155Z,101746.95
2019-01-04T20:56:07.687Z,101744.81
2019-01-04T20:58:55.881Z,101737.11
2019-01-04T21:01:29.213Z,101737.11
2019-01-04T21:03:59.412Z,101734.52
2019-01-04T21:06:44.735Z,101734.52
2019-01-04T21:09:20.483Z,101737.09
2019-01-04T21:11:52.185Z,101734.54
2019-01-04T21:14:24.873Z,101735.41
2019-01-04T21:16:57.757Z,101737.12
2019-01-04T21:19:30.703Z,101735.39
2019-01-04T21:22:09.814Z,101734.95
2019-01-04T21:24:52.915Z,101713.48
2019-01-04T21:30:23.654Z,101716.93
2019-01-04T21:33:13.453Z,101716.08
2019-01-04T21:35:48.207Z,101721.23
2019-01-04T21:38:18.415Z,101699.31
2019-01-04T21:40:51.374Z,101699.31
2019-01-04T21:43:24.734Z,101719.07
2019-01-04T21:46:11.398Z,101713.05
2019-01-04T21:48:44.635Z,101710.02
2019-01-04T21:51:14.839Z,101710.02
2019-01-04T21:53:49.013Z,101699.70
2019-01-04T21:56:19.534Z,101703.56
2019-01-04T21:59:06.272Z,101696.27
2019-01-04T22:01:53.029Z,101690.23
2019-01-04T22:04:39.640Z,101674.31
2019-01-04T22:07:12.513Z,101674.31
2019-01-04T22:09:45.507Z,101668.72
2019-01-04T22:12:15.701Z,101668.72
2019-01-04T22:15:02.373Z,101661.86
2019-01-04T22:17:44.612Z,101660.14
2019-01-04T22:20:17.220Z,101645.55
2019-01-04T22:23:03.551Z,101652.41
2019-01-04T22:25:45.360Z,101647.67
2019-01-04T22:28:27.333Z,101647.67
2019-01-04T22:31:09.851Z,101645.48
2019-01-04T22:33:45.804Z,101645.92
2019-01-04T22:36:32.283Z,101650.19
2019-01-04T22:39:18.580Z,101640.74
2019-01-04T22:42:05.067Z,101642.02
2019-01-04T22:44:51.433Z,101639.86
2019-01-04T22:47:27.916Z,101632.58
2019-01-04T22:50:20.960Z,101613.67
2019-01-04T22:52:55.397Z,101613.67
2019-01-04T22:55:25.638Z,101627.83
2019-01-04T22:58:04.622Z,101627.83
2019-01-04T23:00:50.884Z,101611.91
2019-01-04T23:03:30.035Z,101617.06
2019-01-04T23:06:03.233Z,101614.05
2019-01-04T23:08:42.257Z,101614.05
2019-01-04T23:11:24.127Z,101609.73
2019-01-04T23:13:54.664Z,101596.41
2019-01-04T23:16:28.096Z,101593.38
2019-01-04T23:19:07.006Z,101591.20
2019-01-04T23:22:00.115Z,101591.20
2019-01-04T23:24:30.577Z,101581.70
2019-01-04T23:27:01.221Z,101581.30
2019-01-04T23:29:36.764Z,101569.73
2019-01-04T23:32:12.661Z,101558.47
2019-01-04T23:34:48.554Z,101558.47
2019-01-04T23:37:37.296Z,101550.82
2019-01-04T23:40:19.095Z,101546.48
2019-01-04T23:42:52.306Z,101546.48
2019-01-04T23:45:39.137Z,101531.89
2019-01-04T23:48:28.705Z,101535.30
2019-01-04T23:51:05.029Z,101534.43
2019-01-04T23:53:35.260Z,101534.43
2019-01-04T23:56:19.369Z,101524.03
2019-01-04T23:58:52.360Z,101527.03
